Toronto, Canada
Current Conditions -  °F | °C
As of 5:00 PM on Monday 20 Oct 2014 (Local Time) from CYYZ Reporting Station
Rain Showers Rain Showers  
Wind Chill: 11°   Ceiling: 2000
Heat Index: 11°   Visibility: 6mi
Dew Point:   Wind: 5mph
Humidity: 88%   Direction: 90°E
Pressure: 29.78"   Gusts: NA
Location:  43.65°N, 79.39°W
Report Text: CYYZ 202100Z 09004KT 6SM -SHRA BR BKN020 OVC028 11/09 A2978 RMK SC5SC3 TCU EMBDD PCPN VRY LGT SLP086
Loading
Personal Weather Stations






























Interactive Weather Map New forecast layout! Learn more

10-Day Weather Forecast

Advertisements
Track Severe Weather on mobile